Time;durP1;ratioP1;P1;durP2;ratioP2;P2;SDS_P1;SDS_P2;PMS_P1;PMS_P2;Temp;Humidity;BMP_temperature;BMP_pressure;BME280_temperature;BME280_humidity;BME280_pressure;Samples;Min_cycle;Max_cycle;Signal;HPM_P1;HPM_P2
2021/10/22 00:01:42;;;;;;;10.10;3.95;;;;;;;;;;5027160;28;20034;-81
2021/10/22 00:04:08;;;;;;;6.05;2.90;;;;;;;;;;5029447;28;20076;-85
2021/10/22 00:06:34;;;;;;;6.63;3.40;;;;;;;;;;5023744;28;20036;-83
2021/10/22 00:09:00;;;;;;;6.47;3.38;;;;;;;;;;5029219;28;20076;-84
2021/10/22 00:11:26;;;;;;;7.45;3.38;;;;;;;;;;5025988;28;20030;-83
2021/10/22 00:13:52;;;;;;;8.38;3.97;;;;;;;;;;5024706;28;20877;-82
2021/10/22 00:16:18;;;;;;;6.00;3.45;;;;;;;;;;5022869;28;20022;-82
2021/10/22 00:18:44;;;;;;;7.72;3.30;;;;;;;;;;5024760;28;20034;-78
2021/10/22 00:21:11;;;;;;;7.00;3.55;;;;;;;;;;5023605;28;20026;-82
2021/10/22 00:23:37;;;;;;;7.15;3.58;;;;;;;;;;5021981;28;20095;-82
2021/10/22 00:26:03;;;;;;;7.47;3.90;;;;;;;;;;5028344;28;20033;-81
2021/10/22 00:28:29;;;;;;;9.73;3.78;;;;;;;;;;5025918;28;20469;-79
2021/10/22 00:30:58;;;;;;;5.82;3.40;;;;;;;;;;5021087;28;20034;-80
2021/10/22 00:33:24;;;;;;;8.43;3.42;;;;;;;;;;5029451;28;20041;-81
2021/10/22 00:35:50;;;;;;;7.20;3.40;;;;;;;;;;5028751;28;20144;-84
2021/10/22 00:38:16;;;;;;;6.00;3.20;;;;;;;;;;5023643;28;20026;-80
2021/10/22 00:40:45;;;;;;;7.20;3.30;;;;;;;;;;5022125;28;20113;-82
2021/10/22 00:43:15;;;;;;;7.28;3.40;;;7.10;99.90;;;;;;5022337;28;20029;-81
2021/10/22 00:45:51;;;;;;;8.60;3.75;;;;;;;;;;5026645;28;20030;-80
2021/10/22 00:48:19;;;;;;;13.75;4.25;;;;;;;;;;5019991;28;20060;-81
2021/10/22 00:50:49;;;;;;;10.68;3.60;;;;;;;;;;5021746;28;20057;-83
2021/10/22 00:53:15;;;;;;;9.25;3.95;;;;;;;;;;5027656;28;20025;-82
2021/10/22 00:55:43;;;;;;;5.63;3.22;;;;;;;;;;5021686;28;20056;-84
2021/10/22 00:58:11;;;;;;;13.43;3.97;;;;;;;;;;5022221;28;20037;-81
2021/10/22 01:00:37;;;;;;;10.35;3.95;;;;;;;;;;5024144;28;20033;-81
2021/10/22 01:03:04;;;;;;;7.68;3.72;;;6.70;99.90;;;;;;5022901;28;20030;-82
2021/10/22 01:05:35;;;;;;;6.82;3.45;;;6.70;99.90;;;;;;5024231;28;20112;-78
2021/10/22 01:08:02;;;;;;;9.65;3.63;;;;;;;;;;5024646;28;20034;-80
2021/10/22 01:10:28;;;;;;;10.82;4.22;;;;;;;;;;5026156;28;20029;-83
2021/10/22 01:12:57;;;;;;;12.30;3.80;;;6.60;99.90;;;;;;5033028;28;20045;-83
2021/10/22 01:15:26;;;;;;;8.45;3.97;;;;;;;;;;5025091;28;20061;-82
2021/10/22 01:17:56;;;;;;;7.45;3.90;;;;;;;;;;5024539;28;20040;-81
2021/10/22 01:20:26;;;;;;;12.68;4.68;;;6.60;99.90;;;;;;5023591;28;20045;-80
2021/10/22 01:22:55;;;;;;;12.23;4.20;;;;;;;;;;5028910;28;20040;-84
2021/10/22 01:25:27;;;;;;;9.82;3.53;;;6.60;99.90;;;;;;5028673;28;20029;-82
2021/10/22 01:27:57;;;;;;;10.52;4.15;;;6.60;99.90;;;;;;5025656;28;20124;-80
2021/10/22 01:30:24;;;;;;;9.45;3.85;;;;;;;;;;5030312;28;20048;-81
2021/10/22 01:32:52;;;;;;;9.43;3.75;;;;;;;;;;5026424;28;20041;-81
2021/10/22 01:35:18;;;;;;;9.65;3.88;;;;;;;;;;5026213;28;20030;-81
2021/10/22 01:37:44;;;;;;;9.95;4.18;;;;;;;;;;5023156;28;20025;-83
2021/10/22 01:40:11;;;;;;;12.63;4.28;;;6.80;99.90;;;;;;5027032;28;20608;-82
2021/10/22 01:42:37;;;;;;;9.18;4.50;;;;;;;;;;5027387;28;20491;-82
2021/10/22 01:45:07;;;;;;;10.23;4.30;;;6.70;99.90;;;;;;5029482;28;20126;-81
2021/10/22 01:47:33;;;;;;;7.82;3.72;;;6.60;99.90;;;;;;5027613;28;20038;-82
2021/10/22 01:49:59;;;;;;;8.27;3.67;;;8.70;99.90;;;;;;5027633;28;20699;-78
2021/10/22 01:52:24;;;;;;;8.95;4.20;;;6.10;99.90;;;;;;5021118;28;20033;-80
2021/10/22 01:54:51;;;;;;;8.45;3.92;;;5.20;99.90;;;;;;5019489;28;20029;-83
2021/10/22 01:57:17;;;;;;;10.25;4.35;;;7.70;99.90;;;;;;5023334;28;20049;-83
2021/10/22 01:59:53;;;;;;;8.23;4.13;;;6.50;99.90;;;;;;5025749;28;20030;-82
2021/10/22 02:02:27;;;;;;;8.15;4.15;;;6.90;99.90;;;;;;5038562;28;20026;-80
2021/10/22 02:04:56;;;;;;;9.80;3.95;;;7.80;99.90;;;;;;5020778;28;20033;-80
2021/10/22 02:07:22;;;;;;;10.43;3.80;;;;;;;;;;5022837;28;20033;-83
2021/10/22 02:09:48;;;;;;;8.27;4.50;;;;;;;;;;5022545;28;20049;-84
2021/10/22 02:12:14;;;;;;;5.57;3.63;;;6.30;99.90;;;;;;5028276;28;20101;-82
2021/10/22 02:14:40;;;;;;;6.60;3.80;;;6.30;99.90;;;;;;5019393;28;20050;-84
2021/10/22 02:17:05;;;;;;;6.50;3.50;;;6.30;99.90;;;;;;5026124;28;20026;-83
2021/10/22 02:19:31;;;;;;;9.32;4.88;;;8.60;99.90;;;;;;5024344;28;20057;-86
2021/10/22 02:21:57;;;;;;;8.45;4.13;;;6.70;99.90;;;;;;5026972;28;20090;-81
2021/10/22 02:24:22;;;;;;;9.88;4.13;;;8.90;99.90;;;;;;5023336;28;20140;-80
2021/10/22 02:26:51;;;;;;;7.95;4.00;;;6.20;99.90;;;;;;5025502;28;20057;-84
2021/10/22 02:29:17;;;;;;;11.70;4.25;;;6.20;99.90;;;;;;5040602;28;20060;-82
2021/10/22 02:31:44;;;;;;;9.60;4.80;;;;;;;;;;5027460;28;20033;-80
2021/10/22 02:34:10;;;;;;;9.32;4.53;;;6.10;99.90;;;;;;5026676;28;20037;-83
2021/10/22 02:36:42;;;;;;;11.68;4.72;;;7.60;99.90;;;;;;5022735;28;20056;-81
2021/10/22 02:39:11;;;;;;;10.13;5.00;;;8.70;99.90;;;;;;5036476;28;20029;-83
2021/10/22 02:41:37;;;;;;;12.65;5.25;;;;;;;;;;5027281;28;20024;-80
2021/10/22 02:44:05;;;;;;;8.32;4.07;;;6.00;99.90;;;;;;5018484;28;20064;-82
2021/10/22 02:46:34;;;;;;;10.15;4.65;;;6.00;99.90;;;;;;5026467;28;20107;-80
2021/10/22 02:49:03;;;;;;;10.02;4.88;;;6.00;99.90;;;;;;5028568;28;20038;-80
2021/10/22 02:51:30;;;;;;;9.98;4.63;;;;;;;;;;5019251;28;20052;-84
2021/10/22 02:53:58;;;;;;;9.02;4.80;;;5.80;99.90;;;;;;5021662;28;20056;-83
2021/10/22 02:56:26;;;;;;;14.73;5.47;;;6.60;99.90;;;;;;5024010;28;20041;-79
2021/10/22 02:58:52;;;;;;;11.95;5.47;;;5.80;99.90;;;;;;5020311;28;20026;-86
2021/10/22 03:01:21;;;;;;;21.52;7.13;;;4.40;99.90;;;;;;5029759;28;20050;-84
2021/10/22 03:03:46;;;;;;;20.58;6.65;;;7.60;99.90;;;;;;5032184;28;20021;-79
2021/10/22 03:06:12;;;;;;;17.90;7.15;;;5.70;99.90;;;;;;5017301;28;20032;-83
2021/10/22 03:08:38;;;;;;;14.25;6.97;;;5.70;99.90;;;;;;5020809;28;20037;-80
2021/10/22 03:11:03;;;;;;;14.40;7.13;;;7.80;99.90;;;;;;5040753;28;20045;-83
2021/10/22 03:13:29;;;;;;;14.63;6.85;;;6.10;99.90;;;;;;5019963;28;20303;-80
2021/10/22 03:15:56;;;;;;;16.60;6.25;;;5.60;99.90;;;;;;5032060;28;20026;-84
2021/10/22 03:18:22;;;;;;;28.33;7.18;;;6.10;99.90;;;;;;5042624;28;20030;-83
2021/10/22 03:20:47;;;;;;;27.60;7.95;;;5.60;99.90;;;;;;5033819;28;20033;-84
2021/10/22 03:23:13;;;;;;;34.55;8.10;;;6.20;99.90;;;;;;5043845;28;20029;-84
2021/10/22 03:25:39;;;;;;;20.92;7.47;;;5.50;99.90;;;;;;5025232;28;20033;-82
2021/10/22 03:28:05;;;;;;;16.80;6.40;;;5.40;99.90;;;;;;5033731;28;20746;-84
2021/10/22 03:30:33;;;;;;;21.95;7.70;;;5.50;99.90;;;;;;5039692;28;20106;-84
2021/10/22 03:32:59;;;;;;;18.77;8.25;;;5.50;99.90;;;;;;5042950;28;20029;-81
2021/10/22 03:35:25;;;;;;;15.13;7.45;;;5.90;99.90;;;;;;5040112;28;20025;-85
2021/10/22 03:37:51;;;;;;;17.05;7.10;;;5.60;99.90;;;;;;5041464;28;20439;-81
2021/10/22 03:40:17;;;;;;;20.95;7.75;;;5.60;99.90;;;;;;5024516;28;20018;-85
2021/10/22 03:42:48;;;;;;;24.08;7.75;;;5.60;99.90;;;;;;5024141;28;20025;-85
2021/10/22 03:45:16;;;;;;;22.15;7.65;;;7.40;99.90;;;;;;5032210;28;20026;-82
2021/10/22 03:47:42;;;;;;;26.58;7.40;;;7.60;99.90;;;;;;5031598;28;20049;-82
2021/10/22 03:50:17;;;;;;;22.52;6.93;;;5.90;99.90;;;;;;5025192;28;20025;-81
2021/10/22 03:52:44;;;;;;;25.85;7.43;;;7.60;99.90;;;;;;5024235;28;20033;-83
2021/10/22 03:55:11;;;;;;;20.05;7.50;;;3.80;99.90;;;;;;5032599;28;20104;-81
2021/10/22 03:57:39;;;;;;;29.00;7.63;;;5.60;99.90;;;;;;5034597;28;20029;-86
2021/10/22 04:00:07;;;;;;;33.38;6.63;;;5.60;99.90;;;;;;5025328;28;20041;-84
2021/10/22 04:02:32;;;;;;;30.67;7.53;;;5.50;99.90;;;;;;5033111;28;20491;-85
2021/10/22 04:04:58;;;;;;;35.97;7.20;;;5.50;99.90;;;;;;5026378;28;20029;-82
2021/10/22 04:07:24;;;;;;;23.92;7.85;;;5.50;99.90;;;;;;5039260;28;20033;-81
2021/10/22 04:09:49;;;;;;;26.80;7.03;;;5.40;99.90;;;;;;5029080;28;20032;-81
2021/10/22 04:12:15;;;;;;;61.20;8.43;;;5.40;99.90;;;;;;5026447;28;20026;-84
2021/10/22 04:14:41;;;;;;;20.25;8.27;;;5.70;99.90;;;;;;5040291;28;20047;-81
2021/10/22 04:17:07;;;;;;;29.75;6.45;;;5.30;99.90;;;;;;5029378;28;20039;-82
2021/10/22 04:19:36;;;;;;;45.08;7.68;;;5.40;99.90;;;;;;5046367;28;20219;-81
2021/10/22 04:22:02;;;;;;;47.35;7.80;;;5.30;99.90;;;;;;5027982;28;20026;-81
2021/10/22 04:24:27;;;;;;;26.25;7.40;;;5.30;99.90;;;;;;5041442;28;20037;-83
2021/10/22 04:26:53;;;;;;;44.67;7.97;;;5.30;99.90;;;;;;5047654;28;20041;-83
2021/10/22 04:29:19;;;;;;;26.42;7.05;;;5.30;99.90;;;;;;5027989;28;20548;-84
2021/10/22 04:31:44;;;;;;;39.28;8.65;;;5.20;99.90;;;;;;5050859;28;20022;-85
2021/10/22 04:34:10;;;;;;;31.13;6.63;;;5.10;99.90;;;;;;5027204;28;20032;-82
2021/10/22 04:36:36;;;;;;;27.13;6.65;;;5.20;99.90;;;;;;5029751;28;20026;-80
2021/10/22 04:41:48;;;;;;;23.33;6.40;;;5.20;99.90;;;;;;5024622;28;20037;-87
2021/10/22 04:44:15;;;;;;;18.40;6.57;;;5.30;99.90;;;;;;5041148;28;20034;-84
2021/10/22 04:46:41;;;;;;;20.13;6.13;;;5.20;99.90;;;;;;5041001;28;20588;-83
2021/10/22 04:49:07;;;;;;;17.42;6.65;;;5.30;99.90;;;;;;5028931;28;20056;-84
2021/10/22 04:51:33;;;;;;;23.88;6.53;;;5.30;99.90;;;;;;5019343;28;20032;-82
2021/10/22 04:53:59;;;;;;;34.45;6.20;;;5.30;99.90;;;;;;5039951;28;20026;-84
2021/10/22 04:56:25;;;;;;;22.02;5.78;;;5.30;99.90;;;;;;5040264;28;20030;-81
2021/10/22 04:58:50;;;;;;;31.52;6.38;;;5.20;99.90;;;;;;5033747;28;20034;-85
2021/10/22 05:01:16;;;;;;;36.05;6.13;;;5.20;99.90;;;;;;5030735;28;20076;-80
2021/10/22 05:03:42;;;;;;;47.45;6.28;;;4.90;99.90;;;;;;5047148;28;20045;-83
2021/10/22 05:06:07;;;;;;;25.00;6.00;;;4.90;99.90;;;;;;5047074;28;20026;-81
2021/10/22 05:08:38;;;;;;;26.58;6.68;;;5.20;99.90;;;;;;5033165;28;20498;-79
2021/10/22 05:11:04;;;;;;;24.92;6.55;;;4.80;99.90;;;;;;5041914;28;20045;-84
2021/10/22 05:13:30;;;;;;;28.70;6.07;;;4.90;99.90;;;;;;5023365;28;20036;-84
2021/10/22 05:15:59;;;;;;;21.48;6.78;;;5.50;99.90;;;;;;5047944;28;20022;-82
2021/10/22 05:18:27;;;;;;;26.42;6.10;;;4.90;99.90;;;;;;5031603;28;20022;-86
2021/10/22 05:20:53;;;;;;;26.17;5.68;;;4.90;99.90;;;;;;5040118;28;20120;-84
2021/10/22 05:23:19;;;;;;;19.85;6.35;;;4.90;99.90;;;;;;5031977;28;20555;-83
2021/10/22 05:25:44;;;;;;;16.30;6.03;;;4.90;99.90;;;;;;5029047;28;20040;-88
2021/10/22 05:28:13;;;;;;;21.58;7.00;;;5.00;99.90;;;;;;5043040;28;20065;-82
2021/10/22 05:30:39;;;;;;;11.25;5.28;;;5.50;99.90;;;;;;5030439;28;20079;-85
2021/10/22 05:33:06;;;;;;;17.30;5.22;;;4.90;99.90;;;;;;5041573;28;20025;-81
2021/10/22 05:35:34;;;;;;;22.13;6.28;;;5.00;99.90;;;;;;5026921;28;20063;-81
2021/10/22 05:38:01;;;;;;;11.45;5.78;;;4.80;99.90;;;;;;5045539;28;20029;-85
2021/10/22 05:40:32;;;;;;;10.95;5.28;;;4.60;99.90;;;;;;5027363;28;20032;-86
2021/10/22 05:43:01;;;;;;;15.45;5.15;;;4.80;99.90;;;;;;5034790;28;20112;-82
2021/10/22 05:45:32;;;;;;;28.25;6.55;;;7.10;99.90;;;;;;5034753;28;20121;-87
2021/10/22 05:48:01;;;;;;;14.52;5.80;;;;;;;;;;5032748;28;20451;-83
2021/10/22 05:50:29;;;;;;;21.52;5.93;;;4.70;99.90;;;;;;5025158;28;20084;-81
2021/10/22 05:53:01;;;;;;;17.48;6.65;;;4.70;99.90;;;;;;5033816;28;20045;-84
2021/10/22 05:55:30;;;;;;;14.98;5.90;;;4.70;99.90;;;;;;5027833;28;20041;-86
2021/10/22 05:57:56;;;;;;;25.48;6.60;;;3.90;99.90;;;;;;5023274;28;20046;-86
2021/10/22 06:00:22;;;;;;;14.95;5.50;;;3.00;99.90;;;;;;5033815;28;20037;-84
2021/10/22 06:02:55;;;;;;;60.13;7.15;;;4.70;99.90;;;;;;5024557;28;20093;-86
2021/10/22 06:05:21;;;;;;;48.85;6.60;;;4.50;99.90;;;;;;5026785;28;20034;-83
2021/10/22 06:07:47;;;;;;;43.08;6.28;;;5.20;99.90;;;;;;5025265;28;20033;-82
2021/10/22 06:10:15;;;;;;;15.40;5.88;;;4.00;99.90;;;;;;5029001;28;20030;-85
2021/10/22 06:12:43;;;;;;;48.10;7.43;;;4.00;99.90;;;;;;5025132;28;20101;-83
2021/10/22 06:15:09;;;;;;;56.33;7.78;;;4.10;99.90;;;;;;5032708;28;21080;-81
2021/10/22 06:17:35;;;;;;;28.77;6.82;;;5.40;99.90;;;;;;5040297;28;20034;-81
2021/10/22 06:20:09;;;;;;;17.20;6.75;;;;;;;;;;5025921;28;20025;-81
2021/10/22 06:25:04;;;;;;;37.00;8.18;;;5.30;99.90;;;;;;5024088;28;20045;-80
2021/10/22 06:27:35;;;;;;;19.30;6.97;;;4.10;99.90;;;;;;5034424;28;20037;-84
2021/10/22 06:30:01;;;;;;;25.90;8.80;;;;;;;;;;5039861;28;20033;-86
2021/10/22 06:32:29;;;;;;;23.05;8.50;;;4.30;99.90;;;;;;5034210;28;20128;-82
2021/10/22 06:34:59;;;;;;;25.30;7.43;;;7.00;99.90;;;;;;5022909;28;20087;-86
2021/10/22 06:37:25;;;;;;;16.02;6.40;;;6.20;99.90;;;;;;5033017;28;20034;-81
2021/10/22 06:39:57;;;;;;;18.30;6.55;;;7.00;99.90;;;;;;5034726;28;20108;-85
2021/10/22 06:42:23;;;;;;;18.55;6.72;;;;;;;;;;5032474;28;20029;-85
2021/10/22 06:44:49;;;;;;;13.63;5.93;;;;;;;;;;5028595;28;20131;-87
2021/10/22 06:47:16;;;;;;;10.70;5.30;;;;;;;;;;5028200;28;20071;-82
2021/10/22 06:49:45;;;;;;;14.18;6.00;;;;;;;;;;5026212;28;20045;-85
2021/10/22 06:52:16;;;;;;;14.20;5.97;;;;;;;;;;5030347;28;20503;-82
2021/10/22 06:54:43;;;;;;;16.58;6.32;;;;;;;;;;5033593;28;20088;-83
2021/10/22 06:57:11;;;;;;;18.25;6.95;;;4.80;99.90;;;;;;5027921;28;20037;-83
2021/10/22 06:59:37;;;;;;;15.43;6.63;;;;;;;;;;5033513;28;20096;-78
2021/10/22 07:02:09;;;;;;;17.50;6.30;;;4.70;99.90;;;;;;5030366;28;20032;-85
2021/10/22 07:04:37;;;;;;;13.40;6.47;;;3.90;99.90;;;;;;5027813;28;20086;-84
2021/10/22 07:07:16;;;;;;;15.00;6.65;;;;;;;;;;5023715;28;20541;-81
2021/10/22 07:09:50;;;;;;;15.50;6.15;;;4.80;99.90;;;;;;5025268;28;20071;-85
2021/10/22 07:12:19;;;;;;;12.18;6.00;;;;;;;;;;5021814;28;20034;-80
2021/10/22 07:14:53;;;;;;;10.90;5.57;;;;;;;;;;5040953;28;20479;-80
2021/10/22 07:17:21;;;;;;;15.38;6.07;;;;;;;;;;5024412;28;20054;-85
2021/10/22 07:19:48;;;;;;;11.82;5.05;;;;;;;;;;5026802;28;20467;-81
2021/10/22 07:22:15;;;;;;;11.55;5.18;;;5.10;99.90;;;;;;5029609;28;20459;-83
2021/10/22 07:24:41;;;;;;;11.85;5.53;;;5.60;99.90;;;;;;5024587;28;20041;-84
2021/10/22 07:27:07;;;;;;;14.77;6.53;;;7.10;99.90;;;;;;5019748;28;20037;-80
2021/10/22 07:29:35;;;;;;;11.32;5.57;;;5.10;99.90;;;;;;5026586;28;20030;-84
2021/10/22 07:32:04;;;;;;;16.92;7.43;;;6.40;99.90;;;;;;5034518;28;20042;-81
2021/10/22 07:34:29;;;;;;;13.40;6.13;;;5.20;99.90;;;;;;5025483;28;20038;-81
2021/10/22 07:36:58;;;;;;;21.52;6.22;;;6.40;99.90;;;;;;5023030;28;20033;-79
2021/10/22 07:39:24;;;;;;;13.02;5.88;;;5.40;99.90;;;;;;5026213;28;20029;-82
2021/10/22 07:41:49;;;;;;;12.30;6.30;;;4.40;99.90;;;;;;5031011;28;20042;-79
2021/10/22 07:44:19;;;;;;;17.52;6.55;;;5.90;99.90;;;;;;5030779;28;20103;-80
2021/10/22 07:46:49;;;;;;;14.77;6.53;;;5.60;99.90;;;;;;5043471;28;20092;-80
2021/10/22 07:49:15;;;;;;;13.00;6.50;;;7.50;99.90;;;;;;5036304;28;20026;-82
2021/10/22 07:51:45;;;;;;;13.10;6.45;;;5.40;99.90;;;;;;5025518;28;20041;-80
2021/10/22 07:54:11;;;;;;;17.05;7.20;;;5.50;99.90;;;;;;5025809;28;20029;-83
2021/10/22 07:56:36;;;;;;;11.68;5.95;;;5.30;99.90;;;;;;5039823;28;20057;-79
2021/10/22 07:59:04;;;;;;;12.18;6.40;;;5.20;99.90;;;;;;5026368;28;20467;-84
2021/10/22 08:01:30;;;;;;;12.05;6.10;;;5.20;99.90;;;;;;5023544;28;20041;-84
2021/10/22 08:03:56;;;;;;;11.88;5.88;;;5.30;99.90;;;;;;5038689;28;20040;-83
2021/10/22 08:06:25;;;;;;;12.68;6.50;;;5.20;99.90;;;;;;5021935;28;20112;-82
2021/10/22 08:08:53;;;;;;;11.32;6.10;;;4.80;99.90;;;;;;5027452;28;20037;-80
2021/10/22 08:11:23;;;;;;;11.18;5.55;;;5.40;99.90;;;;;;5022458;28;20053;-77
2021/10/22 08:13:58;;;;;;;13.68;5.85;;;7.30;99.90;;;;;;5025964;28;20034;-82
2021/10/22 08:16:23;;;;;;;11.05;6.10;;;5.70;99.90;;;;;;5028838;28;20471;-82
2021/10/22 08:18:49;;;;;;;11.40;6.13;;;7.20;99.90;;;;;;5044841;28;20076;-80
2021/10/22 08:21:21;;;;;;;13.65;6.07;;;7.80;99.90;;;;;;5022440;28;20024;-80
2021/10/22 08:23:48;;;;;;;12.50;5.97;;;5.80;99.90;;;;;;5027621;28;20033;-77
2021/10/22 08:26:15;;;;;;;11.30;5.65;;;6.00;99.90;;;;;;5033719;28;20403;-78
2021/10/22 08:28:45;;;;;;;14.35;6.00;;;6.10;99.90;;;;;;5029342;28;20025;-79
2021/10/22 08:31:11;;;;;;;14.07;5.90;;;7.40;99.90;;;;;;5029472;28;20030;-82
2021/10/22 08:33:44;;;;;;;15.48;6.05;;;6.90;99.90;;;;;;5036800;28;20140;-83
2021/10/22 08:36:13;;;;;;;12.70;5.47;;;6.10;99.90;;;;;;5016143;28;20029;-81
2021/10/22 08:38:42;;;;;;;7.50;4.68;;;6.70;99.90;;;;;;5024081;28;20062;-82
2021/10/22 08:41:12;;;;;;;9.95;5.35;;;6.20;99.90;;;;;;5024062;28;20025;-81
2021/10/22 08:43:40;;;;;;;9.43;5.28;;;8.40;99.90;;;;;;5021023;28;20030;-81
2021/10/22 08:46:12;;;;;;;11.85;4.72;;;6.40;99.90;;;;;;5019749;28;20033;-85
2021/10/22 08:48:38;;;;;;;10.93;4.93;;;8.50;99.90;;;;;;5023707;28;20025;-80
2021/10/22 08:51:05;;;;;;;14.95;6.13;;;8.40;99.90;;;;;;5021152;28;20068;-83
2021/10/22 08:53:36;;;;;;;13.45;5.85;;;7.10;99.90;;;;;;5030363;28;20041;-81
2021/10/22 08:56:06;;;;;;;12.25;6.32;;;6.90;99.90;;;;;;5036718;28;20057;-82
2021/10/22 08:58:32;;;;;;;12.40;5.03;;;7.10;99.90;;;;;;5027076;28;20037;-81
2021/10/22 09:01:00;;;;;;;13.40;5.90;;;8.50;99.90;;;;;;5034350;28;20057;-79
2021/10/22 09:03:36;;;;;;;11.93;4.95;;;7.40;99.90;;;;;;5025286;28;20026;-77
2021/10/22 09:06:14;;;;;;;12.60;6.32;;;9.40;99.90;;;;;;5025732;28;20526;-83
2021/10/22 09:08:42;;;;;;;15.82;5.28;;;7.20;99.90;;;;;;5041221;28;20044;-82
2021/10/22 09:11:33;;;;;;;10.80;5.97;;;8.00;99.90;;;;;;5029728;28;20068;-82
2021/10/22 09:14:13;;;;;;;12.13;5.38;;;7.70;99.90;;;;;;5030665;28;20060;-83
2021/10/22 09:16:44;;;;;;;10.90;5.80;;;7.90;99.90;;;;;;5018818;28;20089;-79
2021/10/22 09:19:11;;;;;;;11.90;5.85;;;8.10;99.90;;;;;;5019277;28;20111;-79
2021/10/22 09:21:36;;;;;;;10.77;4.88;;;8.20;99.90;;;;;;5023147;28;20553;-84
2021/10/22 09:24:19;;;;;;;11.82;5.13;;;8.30;99.90;;;;;;5034037;28;20034;-84
2021/10/22 09:26:57;;;;;;;10.70;5.22;;;8.40;99.90;;;;;;5023338;28;20029;-83
2021/10/22 09:29:28;;;;;;;16.60;5.47;;;8.30;99.90;;;;;;5027581;28;20041;-82
2021/10/22 09:31:57;;;;;;;12.93;5.70;;;8.50;99.90;;;;;;5024120;28;20062;-82
2021/10/22 09:34:36;;;;;;;13.07;5.95;;;8.60;99.90;;;;;;5021411;28;20029;-83
2021/10/22 09:37:12;;;;;;;10.83;5.03;;;8.70;99.90;;;;;;5030637;28;20032;-79
2021/10/22 09:39:41;;;;;;;15.48;5.95;;;9.10;99.90;;;;;;5023642;28;20035;-83
2021/10/22 09:42:18;;;;;;;8.25;4.90;;;9.00;99.90;;;;;;5032326;28;20076;-80
2021/10/22 09:44:47;;;;;;;14.07;4.55;;;7.70;99.90;;;;;;5023282;28;20069;-84
2021/10/22 09:47:18;;;;;;;12.60;3.47;;;9.10;99.90;;;;;;5042303;28;20025;-79
2021/10/22 09:49:52;;;;;;;14.65;4.03;;;9.30;99.90;;;;;;5015843;28;20106;-80
2021/10/22 09:52:28;;;;;;;11.23;3.58;;;10.90;99.90;;;;;;5027350;28;20076;-79
2021/10/22 09:55:15;;;;;;;11.55;2.95;;;9.30;99.90;;;;;;5029883;28;20029;-82
2021/10/22 09:57:43;;;;;;;7.00;3.20;;;9.80;99.90;;;;;;5039771;28;20064;-83
2021/10/22 10:00:21;;;;;;;10.02;3.28;;;9.70;99.90;;;;;;5045225;28;21058;-81
2021/10/22 10:02:49;;;;;;;9.48;3.20;;;9.80;99.90;;;;;;5032739;28;20033;-79
2021/10/22 10:05:18;;;;;;;12.15;3.00;;;9.90;99.90;;;;;;5030478;28;20018;-80
2021/10/22 10:07:46;;;;;;;8.60;3.28;;;10.20;99.90;;;;;;5024630;28;20029;-84
2021/10/22 10:10:20;;;;;;;13.50;2.50;;;11.40;99.90;;;;;;5029602;28;20036;-83
2021/10/22 10:12:46;;;;;;;9.35;2.22;;;11.90;99.90;;;;;;5025975;28;20490;-82
2021/10/22 10:15:15;;;;;;;13.38;3.92;;;12.20;99.90;;;;;;5029878;28;20037;-80
2021/10/22 10:17:46;;;;;;;6.45;2.30;;;11.20;99.90;;;;;;5031365;28;20490;-80
2021/10/22 10:20:18;;;;;;;8.55;2.55;;;12.80;99.90;;;;;;5022488;28;20037;-80
2021/10/22 10:22:47;;;;;;;8.75;2.90;;;12.40;99.90;;;;;;5039887;28;20085;-82
2021/10/22 10:25:21;;;;;;;7.82;2.97;;;11.00;99.90;;;;;;5022111;28;20610;-81
2021/10/22 10:28:02;;;;;;;9.93;2.55;;;11.60;99.90;;;;;;5019423;28;20606;-82
2021/10/22 10:30:32;;;;;;;10.40;2.33;;;10.70;99.90;;;;;;5020159;28;20071;-84
2021/10/22 10:33:05;;;;;;;9.35;2.75;;;10.50;99.90;;;;;;5032490;28;20033;-79
2021/10/22 10:35:37;;;;;;;5.57;1.88;;;12.40;99.90;;;;;;5019740;28;20034;-83
2021/10/22 10:38:03;;;;;;;12.23;2.60;;;12.00;99.90;;;;;;5022796;28;20030;-80
2021/10/22 10:40:33;;;;;;;7.30;2.03;;;12.90;99.90;;;;;;5031563;28;20026;-83
2021/10/22 10:42:58;;;;;;;7.88;2.40;;;11.30;99.40;;;;;;5031451;28;20026;-84
2021/10/22 10:45:24;;;;;;;6.90;2.45;;;11.40;99.30;;;;;;5027177;28;20043;-83
2021/10/22 10:48:07;;;;;;;10.80;2.15;;;11.40;98.60;;;;;;5031713;28;20487;-83
2021/10/22 10:50:38;;;;;;;9.20;2.08;;;11.10;98.90;;;;;;5026288;28;20069;-80
2021/10/22 10:53:14;;;;;;;7.45;2.13;;;11.20;99.70;;;;;;5033523;28;20175;-80
2021/10/22 10:55:51;;;;;;;9.90;2.33;;;11.30;99.40;;;;;;5022614;28;20042;-83
2021/10/22 10:58:20;;;;;;;8.15;1.90;;;11.30;99.10;;;;;;5042713;28;20045;-81
2021/10/22 11:00:50;;;;;;;16.40;5.90;;;12.40;99.30;;;;;;5041238;28;20241;-82
2021/10/22 11:03:30;;;;;;;10.73;2.00;;;12.80;99.90;;;;;;5025448;28;20052;-82
2021/10/22 11:05:58;;;;;;;7.68;2.20;;;11.50;99.10;;;;;;5025047;28;20033;-83
2021/10/22 11:08:33;;;;;;;8.63;2.28;;;10.70;98.60;;;;;;5027024;28;20030;-80
2021/10/22 11:11:23;;;;;;;8.07;2.72;;;11.50;98.60;;;;;;5034088;28;20097;-79
2021/10/22 11:14:11;;;;;;;6.40;2.10;;;11.40;99.00;;;;;;5030304;28;20021;-84
2021/10/22 11:16:53;;;;;;;9.18;2.17;;;11.40;99.30;;;;;;5030351;28;20123;-83
2021/10/22 11:19:35;;;;;;;6.75;1.98;;;11.30;99.00;;;;;;5049066;28;20021;-82
2021/10/22 11:22:06;;;;;;;6.43;1.52;;;11.30;99.30;;;;;;5026968;28;20482;-85
2021/10/22 11:24:38;;;;;;;7.80;2.58;;;11.40;99.10;;;;;;5049026;28;20037;-83
2021/10/22 11:27:09;;;;;;;6.90;2.38;;;10.00;98.40;;;;;;5048958;28;20032;-83
2021/10/22 11:29:41;;;;;;;8.75;2.42;;;11.40;98.50;;;;;;5026916;28;20025;-83
2021/10/22 11:32:21;;;;;;;9.75;2.45;;;11.40;98.80;;;;;;5032836;28;20029;-83
2021/10/22 11:35:02;;;;;;;9.20;2.83;;;11.70;99.00;;;;;;5029922;28;20030;-79
2021/10/22 11:37:37;;;;;;;5.57;1.80;;;11.80;98.40;;;;;;5034168;28;20025;-79
2021/10/22 11:40:09;;;;;;;5.60;1.90;;;11.90;98.30;;;;;;5032859;28;20497;-83
2021/10/22 11:42:39;;;;;;;4.65;1.70;;;11.90;98.20;;;;;;5035096;28;20032;-81
2021/10/22 11:45:13;;;;;;;4.93;1.85;;;11.90;97.70;;;;;;5036102;28;20033;-82
2021/10/22 11:47:45;;;;;;;6.20;2.33;;;11.70;98.10;;;;;;5038526;28;20053;-83
2021/10/22 11:50:29;;;;;;;8.52;2.10;;;11.70;98.30;;;;;;5030651;28;20087;-80
2021/10/22 11:52:54;;;;;;;6.60;1.80;;;12.20;98.50;;;;;;5030780;28;20025;-82
2021/10/22 11:55:29;;;;;;;5.13;1.77;;;13.10;99.30;;;;;;5032515;28;20028;-82
2021/10/22 11:57:56;;;;;;;9.15;1.80;;;12.60;98.50;;;;;;5032990;28;20026;-84
2021/10/22 12:00:23;;;;;;;9.40;2.10;;;11.70;98.80;;;;;;5048859;28;20049;-77
2021/10/22 12:02:50;;;;;;;7.43;1.90;;;11.80;98.40;;;;;;5023094;28;20029;-82
2021/10/22 12:05:18;;;;;;;7.82;2.28;;;13.60;99.60;;;;;;5033762;28;20022;-82
2021/10/22 12:07:49;;;;;;;7.22;1.67;;;12.70;99.00;;;;;;5030382;28;20577;-81
2021/10/22 12:10:19;;;;;;;4.68;2.10;;;13.90;99.40;;;;;;5043852;28;20045;-84
2021/10/22 12:12:51;;;;;;;6.10;2.00;;;12.10;98.30;;;;;;5029775;28;20419;-82
2021/10/22 12:15:27;;;;;;;5.35;2.03;;;11.80;98.50;;;;;;5028529;28;20026;-83
2021/10/22 12:18:01;;;;;;;7.18;1.80;;;11.40;98.60;;;;;;5031827;28;20026;-85
2021/10/22 12:20:28;;;;;;;6.50;1.77;;;11.60;98.20;;;;;;5027856;28;20138;-81
2021/10/22 12:22:59;;;;;;;5.15;1.88;;;11.50;97.60;;;;;;5032028;28;20028;-84
2021/10/22 12:25:30;;;;;;;5.85;1.50;;;12.20;98.30;;;;;;5028798;28;20032;-80
2021/10/22 12:27:57;;;;;;;6.25;1.70;;;11.60;98.50;;;;;;5036396;28;20262;-80
2021/10/22 12:30:25;;;;;;;5.60;1.80;;;11.40;98.50;;;;;;5032816;28;20042;-81
2021/10/22 12:32:54;;;;;;;7.55;1.88;;;11.40;98.50;;;;;;5024436;28;20029;-82
2021/10/22 12:35:35;;;;;;;8.32;2.03;;;11.50;98.00;;;;;;5035516;28;20029;-84
2021/10/22 12:38:17;;;;;;;7.13;2.10;;;11.60;97.80;;;;;;5031521;28;20032;-84
2021/10/22 12:40:44;;;;;;;5.90;1.70;;;11.70;97.90;;;;;;5039108;28;20029;-82
2021/10/22 12:43:25;;;;;;;7.65;1.77;;;11.80;97.40;;;;;;5022555;28;20022;-84
2021/10/22 12:46:04;;;;;;;6.68;1.80;;;11.90;97.20;;;;;;5031035;28;20140;-83
2021/10/22 12:48:31;;;;;;;7.43;1.80;;;11.90;97.00;;;;;;5027462;28;20078;-83
2021/10/22 12:51:13;;;;;;;7.32;1.67;;;12.00;96.80;;;;;;5019830;28;20083;-81
2021/10/22 12:53:42;;;;;;;6.63;1.67;;;11.90;97.00;;;;;;5033138;28;20034;-81
2021/10/22 12:56:22;;;;;;;7.13;2.00;;;11.90;97.30;;;;;;5025974;28;20030;-84
2021/10/22 12:59:03;;;;;;;6.00;2.22;;;12.00;97.10;;;;;;5032749;28;20033;-81
2021/10/22 13:01:42;;;;;;;6.38;1.65;;;11.90;97.00;;;;;;5031793;28;20085;-81
2021/10/22 13:04:14;;;;;;;8.82;1.60;;;11.70;97.40;;;;;;5031887;28;20041;-82
2021/10/22 13:09:43;;;;;;;7.63;2.25;;;11.60;98.30;;;;;;5027404;28;20112;-78
2021/10/22 13:12:39;;;;;;;6.40;1.95;;;11.70;98.20;;;;;;5031363;28;20372;-82
2021/10/22 13:20:36;;;;;;;3.78;1.65;;;11.70;98.20;;;;;;5027708;28;20040;-84
2021/10/22 13:23:07;;;;;;;7.10;1.98;;;11.70;98.00;;;;;;5027854;28;20029;-80
2021/10/22 13:25:33;;;;;;;8.15;1.60;;;11.70;98.40;;;;;;5032071;28;20049;-80
2021/10/22 13:27:59;;;;;;;5.00;1.90;;;11.20;98.00;;;;;;5028043;28;20434;-83
2021/10/22 13:30:35;;;;;;;5.80;1.88;;;11.80;98.30;;;;;;5027632;28;20033;-86